Valparaiso, Indiana
Current Conditions -  °F | °C
As of 8:07 AM on Sunday 25 Jan 2015 (Local Time) from KVPZ Reporting Station
Haze Haze  
Wind Chill: 27°   Ceiling: 800
Heat Index: 34°   Visibility: 2mi
Dew Point: 32°   Wind: 8mph
Humidity: 92%   Direction: 50°NE
Pressure: 29.72"   Gusts: NA
Location:  41.47°N, 87.06°W
Report Text: KVPZ 251407Z AUTO 05007KT 2SM UP BR BKN008 BKN016 OVC028 01/00 A2972 RMK AO2 P0000 T00110000 TSNO
Loading
Personal Weather Stations






























Interactive Weather Map New forecast layout! Learn more

10-Day Weather Forecast

Advertisements
Track Severe Weather on mobile